Flight Track Log - Related Links

Times and Time Zones

All times are in EDT time to prevent confusion due to time zone crossing. See the SKW4822 flight status page for this flight to view local times or setup timezone preferences in your user account.


Time Position Orientation Groundspeed Altitude Reporting Facility
EDT Latitude Longitude Course Direction KTS MPH feet Rate Location/Type
Sun 07:50:42 PM 41.9667 -87.8667 14° North 154 177 2,700  Level Chicago TRACON
Sun 07:51:42 PM 41.9667 -87.7833 90° East 245 282 4,600 2,450 Climbing Chicago TRACON
Sun 07:52:00 PM 42.2701 -87.8033 10° North  Level FlightAware Approximate
Sun 07:52:42 PM 42.0000 -87.7000 62° Northeast 284 327 7,600  Level Chicago TRACON
Sun 07:53:00 PM 42.3718 -87.7725 20° North  Level FlightAware Approximate
Sun 07:54:00 PM 42.4727 -87.7388 North  Level FlightAware Approximate
Sun 07:54:42 PM 42.1617 -87.7094 358° North 298 343 13,300  Level Chicago Center
Sun 07:55:00 PM 42.5751 -87.7139 14° North  Level FlightAware Approximate
Sun 07:55:44 PM 42.2503 -87.7108 359° North 316 364 15,900  Level Chicago Center
Sun 07:56:46 PM 42.3500 -87.7144 358° North 350 403 18,000 1,984 Climbing Chicago Center
Sun 07:57:48 PM 42.4508 -87.6864 12° North 368 423 20,000 2,226 Climbing Chicago Center
Sun 07:58:50 PM 42.5669 -87.6097 26° Northeast 387 445 22,600 1,452 Climbing Chicago Center
Sun 07:59:52 PM 42.6564 -87.5347 32° Northeast 411 473 23,000 194 Climbing Chicago Center
Sun 08:00:54 PM 42.7211 -87.3772 61° Northeast 432 497 23,000  Level Chicago Center
Sun 08:01:56 PM 42.7611 -87.2189 71° East 441 507 23,000  Level Chicago Center
Sun 08:02:58 PM 42.8014 -87.0628 71° East 441 507 23,000  Level Chicago Center
Sun 08:04:00 PM 42.8411 -86.9061 71° East 439 505 23,000  Level Chicago Center
Sun 08:05:02 PM 42.8786 -86.7556 71° East 424 488 23,000  Level Chicago Center
Sun 08:06:04 PM 42.9239 -86.5742 71° East 423 487 23,000  Level Chicago Center
Sun 08:07:06 PM 42.9614 -86.4219 71° East 425 489 23,000  Level Chicago Center
Sun 08:08:08 PM 42.9986 -86.2700 71° East 423 487 23,000  Level Chicago Center
Sun 08:09:10 PM 43.0364 -86.1164 71° East 425 489 23,000  Level Chicago Center
Sun 08:10:12 PM 43.0764 -85.9475 72° East 431 496 23,000  Level Chicago Center
Sun 08:11:14 PM 43.1136 -85.7919 72° East 430 495 23,000  Level Chicago Center
Sun 08:12:16 PM 43.1494 -85.6414 72° East 422 486 23,000  Level Chicago Center
Sun 08:13:18 PM 43.1847 -85.4928 72° East 414 476 23,000  Level Chicago Center
Sun 08:14:20 PM 43.2200 -85.3419 72° East 415 478 23,000  Level Chicago Center
Sun 08:15:22 PM 43.2353 -85.1528 84° East 418 481 23,000  Level Chicago Center
Sun 08:16:24 PM 43.2058 -84.9944 104° East 427 491 23,000  Level Chicago Center
Sun 08:17:28 PM 43.1739 -84.8339 105° East 417 480 23,000  Level Cleveland Center
Sun 08:18:28 PM 43.1442 -84.6781 105° East 417 480 23,000 -300 Level Cleveland Center
Sun 08:19:28 PM 43.1181 -84.5314 104° East 412 474 22,400 -1,150 Descending Cleveland Center
Sun 08:20:28 PM 43.0872 -84.3928 107° East 399 459 20,700 -1,500 Descending Cleveland Center
Sun 08:21:28 PM 43.0642 -84.2636 104° East 373 429 19,400 -1,250 Descending Cleveland Center
Sun 08:22:28 PM 43.0389 -84.1397 106° East 347 399 18,200 -1,182 Descending Cleveland Center
Sun 08:23:40 PM 43.0103 -83.9819 104° East 339 390 16,800 -1,200 Descending Cleveland Center
Sun 08:24:28 PM 42.9922 -83.8900 105° East 335 386 15,800 -1,574 Descending Cleveland Center
Sun 08:25:42 PM 42.9181 -83.7842 134° Southeast 303 349 13,600 -1,550 Descending Cleveland Center
Sun 08:26:28 PM 42.8667 -83.7531 156° South 287 330 12,700 -1,574 Descending Cleveland Center
Sun 08:26:43 PM 42.8381 -83.7375 158° South 302 348 12,000 -1,500 Descending Cleveland Center
Sun 08:27:28 PM 42.7889 -83.7094 157° South 287 330 11,200 -1,574 Descending Cleveland Center
Sun 08:27:44 PM 42.7619 -83.6942 157° South 295 339 10,400 -1,900 Descending Cleveland Center
Sun 08:28:28 PM 42.7150 -83.6664 157° South 292 336 9,300 -1,377 Descending Cleveland Center
Sun 08:28:45 PM 42.6903 -83.6481 151° Southeast 289 333 9,000 -500 Descending Cleveland Center
Sun 08:29:04 PM 42.6728 -83.6242 135° Southeast 290 334 9,000 -462 Level FAA TRACON SMA TRACON (SMA)
Sun 08:29:24 PM 42.6519 -83.5944 134° Southeast 282 325 8,700 -1,350 Descending FAA TRACON SMA TRACON (SMA)
Sun 08:29:44 PM 42.6353 -83.5703 133° Southeast 283 326 8,100 -1,610 Descending FAA TRACON SMA TRACON (SMA)
Sun 08:30:05 PM 42.6186 -83.5464 133° Southeast 282 325 7,600 -1,650 Descending FAA TRACON SMA TRACON (SMA)
Sun 08:30:24 PM 42.5983 -83.5161 132° Southeast 281 323 7,000 -1,538 Descending FAA TRACON SMA TRACON (SMA)
Sun 08:30:44 PM 42.5850 -83.4956 131° Southeast 275 316 6,600 -1,350 Descending FAA TRACON SMA TRACON (SMA)
Sun 08:31:04 PM 42.5644 -83.4739 142° Southeast 270 311 6,100 -1,350 Descending FAA TRACON SMA TRACON (SMA)
Sun 08:31:24 PM 42.5472 -83.4550 141° Southeast 260 299 5,700 -1,500 Descending FAA TRACON SMA TRACON (SMA)
Sun 08:31:44 PM 42.5261 -83.4317 141° Southeast 254 292 5,100 -1,650 Descending FAA TRACON SMA TRACON (SMA)
Sun 08:32:04 PM 42.5094 -83.4136 141° Southeast 250 288 4,600 -1,350 Descending FAA TRACON SMA TRACON (SMA)
Sun 08:32:24 PM 42.4931 -83.3958 141° Southeast 247 284 4,200 -878 Descending FAA TRACON SMA TRACON (SMA)
Sun 08:32:45 PM 42.4731 -83.3733 140° Southeast 243 280 4,000 -293 Descending FAA TRACON SMA TRACON (SMA)
Sun 08:33:05 PM 42.4572 -83.3564 142° Southeast 240 276 4,000  Level FAA TRACON SMA TRACON (SMA)
Sun 08:33:25 PM 42.4436 -83.3408 140° Southeast 238 274 4,000  Level FAA TRACON SMA TRACON (SMA)
Sun 08:33:45 PM 42.4214 -83.3181 143° Southeast 236 272 4,000  Level FAA TRACON SMA TRACON (SMA)
Sun 08:34:04 PM 42.4028 -83.3136 170° South 218 251 4,000 -154 Level FAA TRACON SMA TRACON (SMA)
Sun 08:34:24 PM 42.3853 -83.3150 183° South 196 226 3,900 -450 Descending FAA TRACON SMA TRACON (SMA)
Sun 08:34:44 PM 42.3664 -83.3169 184° South 178 205 3,700 -900 Descending FAA TRACON SMA TRACON (SMA)
Sun 08:35:04 PM 42.3494 -83.3189 185° South 179 206 3,300 -1,200 Descending FAA TRACON SMA TRACON (SMA)

Login

Don't have an account? Register now (free) for customized features, flight alerts, and more!